Somers, NY (10589)

8:44 PM EDT on July 30, 2015 (GMT -0400)
Somers | | Change Station
CLOSE
Current Station
Personal Weather Station
Location: Heritage Hills, NY
Elevation: 607 ft
Nearby Weather Stations

Elev 607 ft 41.35 °N, 73.70 °W | Updated 18 seconds ago

Mostly Cloudy
Mostly Cloudy
74.5 °F
Feels Like 72 °F
N
0.0
Wind Variable Wind from ESE
Gusts 0.0 mph

Today
High -- | Low -- °F
--% Chance of Precip.
Yesterday
High -- | Low -- °F
Precip. -- in
5:47 AM 8:14 PM
Full, 100% visible
Pressure 29.83 in
Visibility 8.0 miles
Clouds Mostly Cloudy 1000 ft
Mostly Cloudy 1400 ft
Mostly Cloudy 11000 ft
Heat Index 72 °F
Dew Point 73 °F
Humidity 94%
Rainfall 1.67 in
Snow Depth Not available.
UV 0 out of 12
Pollen 6.40 out of 12
Air Quality Not available.
Flu Activity Not available.
SPECI KDXR 310007Z 25005KT 8SM BKN010 BKN014 BKN110 24/23 A2983 RMK AO2 CIG 009V013 T02390233 $

More Conditions Fewer Conditions

Pressure 29.83 in
Visibility 8.0 miles
Clouds Mostly Cloudy 1000 ft
Mostly Cloudy 1400 ft
Mostly Cloudy 11000 ft
Heat Index 72 °F
Dew Point 73 °F
Humidity 94%
Rainfall 1.67 in
Snow Depth Not available.
UV 0 out of 12
Pollen 6.40 out of 12
Air Quality Not available.
Flu Activity Not available.
SPECI KDXR 310007Z 25005KT 8SM BKN010 BKN014 BKN110 24/23 A2983 RMK AO2 CIG 009V013 T02390233 $

More Conditions Fewer Conditions

10-Day Weather Forecast

×

Almanac

Astronomy

Jul. 30, 2015 Rise Set
Actual Time
Civil Twilight
Nautical Twilight
Astronomical Twilight
Moon
Length of Visible Light
Length of Day
Tomorrow will be .
, % of the Moon is Illuminated

Today's Extremes

State Highs State Lows

Community

WunderPhotos

Upload Photos

1,842,551 photos uploaded!

WunderBlogs® & News

Nearby

Air Quality

  Air Quality AQ Index Pollutant
Not available.

Snow Depth

Station Depth Elevation

Earthquake Activity

City Distance Mag. Time & Date
Minimum magnitude displayed is 2.5.

Coastal Water Temperatures

Place Temperature

Stations

Nearby Weather Stations

Station Location Temp. Windchill Dew Point Humidity Wind Precip. Elev Updated Type